Time;durP1;ratioP1;P1;durP2;ratioP2;P2;SDS_P1;SDS_P2;PMS_P1;PMS_P2;Temp;Humidity;BMP_temperature;BMP_pressure;BME280_temperature;BME280_humidity;BME280_pressure;Samples;Min_cycle;Max_cycle;Signal;HPM_P1;HPM_P2
2022/09/22 00:00:24;;;;;;;6.13;3.70;;;14.80;99.90;;;;;;5049683;28;20103;-60
2022/09/22 00:02:54;;;;;;;6.40;3.20;;;14.70;99.90;;;;;;5050986;28;20049;-59
2022/09/22 00:05:22;;;;;;;5.22;3.63;;;14.70;99.90;;;;;;5049824;28;20055;-59
2022/09/22 00:07:49;;;;;;;9.20;3.67;;;14.60;99.90;;;;;;5050455;28;20083;-59
2022/09/22 00:10:17;;;;;;;10.77;3.60;;;14.60;99.90;;;;;;5050549;28;20565;-59
2022/09/22 00:12:46;;;;;;;5.72;3.40;;;14.60;99.90;;;;;;5050938;28;20500;-58
2022/09/22 00:15:13;;;;;;;5.03;3.08;;;14.60;99.90;;;;;;5050597;28;20407;-60
2022/09/22 00:17:39;;;;;;;4.43;3.25;;;14.60;99.90;;;;;;5050567;28;20485;-58
2022/09/22 00:20:06;;;;;;;6.75;3.03;;;14.50;99.90;;;;;;5050314;28;20140;-60
2022/09/22 00:22:33;;;;;;;8.75;3.33;;;14.40;99.90;;;;;;5051047;28;20136;-57
2022/09/22 00:25:00;;;;;;;12.10;3.80;;;14.30;99.90;;;;;;5050400;28;20562;-57
2022/09/22 00:27:27;;;;;;;8.35;4.35;;;14.20;99.90;;;;;;5049565;28;20415;-59
2022/09/22 00:29:54;;;;;;;6.93;3.20;;;14.10;99.90;;;;;;5050492;28;20048;-59
2022/09/22 00:32:21;;;;;;;6.35;3.22;;;14.10;99.90;;;;;;5049547;28;20403;-59
2022/09/22 00:34:48;;;;;;;6.85;3.17;;;14.10;99.90;;;;;;5032867;28;20431;-59
2022/09/22 00:37:15;;;;;;;5.00;3.10;;;14.10;99.90;;;;;;5050712;28;20388;-59
2022/09/22 00:39:43;;;;;;;6.57;3.72;;;14.00;99.90;;;;;;5050447;28;20041;-59
2022/09/22 00:42:13;;;;;;;8.75;2.80;;;14.00;99.90;;;;;;5051044;28;20370;-59
2022/09/22 00:44:41;;;;;;;5.25;3.45;;;14.00;99.90;;;;;;5048601;28;20096;-59
2022/09/22 00:47:24;;;;;;;7.80;3.60;;;14.10;99.90;;;;;;5050448;28;20111;-59
2022/09/22 00:50:03;;;;;;;4.53;3.10;;;14.00;99.90;;;;;;5049299;28;20159;-58
2022/09/22 00:52:43;;;;;;;5.63;3.40;;;14.00;99.90;;;;;;5050422;28;20844;-58
2022/09/22 00:55:12;;;;;;;7.40;2.97;;;13.90;99.90;;;;;;4692911;28;10000260;-58
2022/09/22 00:57:40;;;;;;;6.32;3.78;;;13.80;99.90;;;;;;5021917;28;20128;-60
2022/09/22 01:00:08;;;;;;;7.47;3.50;;;13.70;99.90;;;;;;5033000;28;20060;-57
2022/09/22 01:02:34;;;;;;;5.63;2.97;;;13.70;99.90;;;;;;5048813;28;20074;-58
2022/09/22 01:05:01;;;;;;;4.82;3.20;;;13.60;99.90;;;;;;5052793;28;20055;-59
2022/09/22 01:07:29;;;;;;;7.55;3.08;;;13.60;99.90;;;;;;5053030;28;20492;-58
2022/09/22 01:09:57;;;;;;;11.93;3.38;;;13.60;99.90;;;;;;5052603;28;20056;-59
2022/09/22 01:12:25;;;;;;;7.00;2.65;;;13.60;99.90;;;;;;5021005;28;20045;-60
2022/09/22 01:15:00;;;;;;;5.13;3.58;;;13.50;99.90;;;;;;5053180;28;20052;-59
2022/09/22 01:17:45;;;;;;;7.43;3.25;;;13.40;99.90;;;;;;5044189;28;20060;-59
2022/09/22 01:20:22;;;;;;;;;;;13.40;99.90;;;;;;5053049;28;20057;-59
2022/09/22 01:23:15;;;;;;;6.18;2.83;;;13.40;99.90;;;;;;5055986;28;19929;-58
2022/09/22 01:26:09;;;;;;;4.75;2.88;;;13.40;99.90;;;;;;5041391;28;20231;-58
2022/09/22 01:28:58;;;;;;;5.72;3.40;;;13.50;99.90;;;;;;5054331;28;20049;-58
2022/09/22 01:31:56;;;;;;;3.35;2.70;;;13.40;99.90;;;;;;5051679;28;20500;-59
2022/09/22 01:34:35;;;;;;;4.40;3.00;;;13.20;99.90;;;;;;5032808;28;20053;-59
2022/09/22 01:37:03;;;;;;;5.63;2.80;;;13.10;99.90;;;;;;5032135;28;20132;-59
2022/09/22 01:39:33;;;;;;;5.20;3.33;;;13.00;99.90;;;;;;5032827;28;20049;-59
2022/09/22 01:42:23;;;;;;;8.40;3.58;;;13.00;99.90;;;;;;5047099;28;20044;-60
2022/09/22 01:44:59;;;;;;;5.30;2.97;;;13.10;99.90;;;;;;5018720;28;20046;-58
2022/09/22 01:47:27;;;;;;;5.93;2.78;;;13.10;99.90;;;;;;5049294;28;20049;-59
2022/09/22 01:50:25;;;;;;;4.88;3.55;;;13.00;99.90;;;;;;5036347;28;20505;-59
2022/09/22 01:52:52;;;;;;;5.18;3.35;;;13.00;99.90;;;;;;5051555;28;20361;-60
2022/09/22 01:55:28;;;;;;;7.18;3.58;;;12.90;99.90;;;;;;5035540;28;20049;-58
2022/09/22 01:58:15;;;;;;;15.50;3.50;;;12.90;99.90;;;;;;5052010;28;20132;-59
2022/09/22 02:00:44;;;;;;;6.50;2.80;;;12.80;99.90;;;;;;5038183;28;20136;-58
2022/09/22 02:03:18;;;;;;;5.80;3.78;;;12.80;99.90;;;;;;5034973;28;20049;-58
2022/09/22 02:05:49;;;;;;;8.13;3.40;;;12.80;99.90;;;;;;5036041;28;20143;-59
2022/09/22 02:08:20;;;;;;;5.40;3.03;;;12.80;99.90;;;;;;5051590;28;20112;-59
2022/09/22 02:10:47;;;;;;;3.88;2.80;;;12.90;99.90;;;;;;5035823;28;20053;-59
2022/09/22 02:13:14;;;;;;;5.50;3.13;;;12.90;99.90;;;;;;5052689;28;20045;-59
2022/09/22 02:15:59;;;;;;;4.28;2.97;;;12.90;99.90;;;;;;5053265;28;20071;-58
2022/09/22 02:19:07;;;;;;;4.78;3.42;;;12.90;99.90;;;;;;5037590;28;20508;-58
2022/09/22 02:21:39;;;;;;;8.45;3.70;;;12.80;99.90;;;;;;5051844;28;20099;-58
2022/09/22 02:24:23;;;;;;;4.28;2.75;;;12.70;99.90;;;;;;5034399;28;20044;-59
2022/09/22 02:26:50;;;;;;;8.82;3.50;;;12.70;99.90;;;;;;5052787;28;20468;-59
2022/09/22 02:29:17;;;;;;;5.18;3.50;;;12.70;99.90;;;;;;5051126;28;20048;-59
2022/09/22 02:31:44;;;;;;;6.95;3.30;;;12.70;99.90;;;;;;5052489;28;20140;-59
2022/09/22 02:34:11;;;;;;;6.97;2.90;;;12.60;99.90;;;;;;5034410;28;20396;-59
2022/09/22 02:36:53;;;;;;;5.55;3.80;;;12.60;99.90;;;;;;5018343;28;20131;-59
2022/09/22 02:39:28;;;;;;;4.28;2.80;;;12.60;99.90;;;;;;5051903;28;20053;-59
2022/09/22 02:42:03;;;;;;;8.00;3.28;;;12.60;99.90;;;;;;5051663;28;20439;-58
2022/09/22 02:44:42;;;;;;;5.45;3.35;;;12.50;99.90;;;;;;5035945;28;20044;-58
2022/09/22 02:47:11;;;;;;;7.80;3.75;;;12.50;99.90;;;;;;5052331;28;20052;-59
2022/09/22 02:49:39;;;;;;;6.82;3.45;;;12.40;99.90;;;;;;5052017;28;20408;-58
2022/09/22 02:52:12;;;;;;;5.00;3.03;;;12.40;99.90;;;;;;5051033;28;20060;-59
2022/09/22 02:54:39;;;;;;;7.65;2.97;;;12.40;99.90;;;;;;5050827;28;20399;-59
2022/09/22 02:57:07;;;;;;;4.80;2.85;;;12.40;99.90;;;;;;5052249;28;20047;-59
2022/09/22 02:59:34;;;;;;;6.65;3.15;;;12.30;99.90;;;;;;5050828;28;20052;-60
2022/09/22 03:02:01;;;;;;;4.43;3.00;;;12.30;99.90;;;;;;5054318;28;20083;-59
2022/09/22 03:04:27;;;;;;;7.82;2.80;;;12.30;99.90;;;;;;5055196;28;20405;-59
2022/09/22 03:06:54;;;;;;;4.25;2.70;;;12.30;99.90;;;;;;5057729;28;20056;-59
2022/09/22 03:09:21;;;;;;;8.32;3.60;;;12.30;99.90;;;;;;5057526;28;20051;-59
2022/09/22 03:11:48;;;;;;;6.47;3.22;;;12.20;99.90;;;;;;5056026;28;20151;-59
2022/09/22 03:14:14;;;;;;;4.50;2.95;;;12.30;99.90;;;;;;5055016;28;20051;-59
2022/09/22 03:16:41;;;;;;;5.68;3.10;;;12.20;99.90;;;;;;5056181;28;20048;-60
2022/09/22 03:19:08;;;;;;;7.65;3.33;;;12.20;99.90;;;;;;5057953;28;20124;-59
2022/09/22 03:21:35;;;;;;;4.22;2.60;;;12.20;99.90;;;;;;5058699;28;20127;-59
2022/09/22 03:24:02;;;;;;;5.82;3.25;;;12.20;99.90;;;;;;5054877;28;20048;-59
2022/09/22 03:26:29;;;;;;;9.68;2.50;;;12.20;99.90;;;;;;5055789;28;20077;-59
2022/09/22 03:28:56;;;;;;;5.57;3.78;;;12.20;99.90;;;;;;5055972;28;20044;-60
2022/09/22 03:31:22;;;;;;;5.15;3.03;;;12.20;99.90;;;;;;5056617;28;20047;-60
2022/09/22 03:33:49;;;;;;;4.53;2.53;;;12.10;99.90;;;;;;5056784;28;20148;-60
2022/09/22 03:36:18;;;;;;;5.95;2.35;;;12.10;99.90;;;;;;5051389;28;20118;-59
2022/09/22 03:38:45;;;;;;;3.85;2.47;;;12.00;99.90;;;;;;5035301;28;20393;-59
2022/09/22 03:41:12;;;;;;;4.53;2.35;;;11.90;99.90;;;;;;5052229;28;20055;-59
2022/09/22 03:43:39;;;;;;;7.55;2.47;;;11.80;99.90;;;;;;5053019;28;20498;-59
2022/09/22 03:46:06;;;;;;;3.42;2.20;;;11.80;99.90;;;;;;5052013;28;20133;-59
2022/09/22 03:48:33;;;;;;;3.03;2.47;;;11.80;99.90;;;;;;5051340;28;20049;-59
2022/09/22 03:51:00;;;;;;;6.00;2.38;;;11.80;99.90;;;;;;5051936;28;20059;-60
2022/09/22 03:53:26;;;;;;;5.47;2.60;;;11.80;99.90;;;;;;5051911;28;20056;-59
2022/09/22 03:56:06;;;;;;;5.68;2.45;;;11.80;99.90;;;;;;5051945;28;20049;-59
2022/09/22 03:58:33;;;;;;;3.58;2.28;;;11.70;99.90;;;;;;5050598;28;20378;-59
2022/09/22 04:00:59;;;;;;;3.03;1.80;;;11.70;99.90;;;;;;5050328;28;20040;-59
2022/09/22 04:03:27;;;;;;;3.85;2.20;;;11.60;99.90;;;;;;5046259;28;20096;-59
2022/09/22 04:05:54;;;;;;;3.90;2.20;;;11.60;99.90;;;;;;5038225;28;20051;-60
2022/09/22 04:08:21;;;;;;;4.43;2.60;;;11.60;99.90;;;;;;5051082;28;20048;-59
2022/09/22 04:10:48;;;;;;;3.65;2.58;;;11.60;99.90;;;;;;5049952;28;20059;-59
2022/09/22 04:13:15;;;;;;;4.28;2.95;;;11.60;99.90;;;;;;5051235;28;20051;-59
2022/09/22 04:15:41;;;;;;;4.32;2.50;;;11.60;99.90;;;;;;5051460;28;20093;-59
2022/09/22 04:18:09;;;;;;;4.80;2.67;;;11.60;99.90;;;;;;5051073;28;20045;-59
2022/09/22 04:20:37;;;;;;;6.10;2.33;;;11.60;99.90;;;;;;5050142;28;20076;-59
2022/09/22 04:23:10;;;;;;;5.45;2.80;;;11.60;99.90;;;;;;5049696;28;20047;-60
2022/09/22 04:25:37;;;;;;;3.90;2.80;;;11.60;99.90;;;;;;5051095;28;20433;-59
2022/09/22 04:28:04;;;;;;;4.38;2.50;;;11.60;99.90;;;;;;5050402;28;20048;-58
2022/09/22 04:30:31;;;;;;;5.68;2.78;;;11.50;99.90;;;;;;5055254;28;20471;-59
2022/09/22 04:32:58;;;;;;;3.83;2.80;;;11.50;99.90;;;;;;5037175;28;20053;-59
2022/09/22 04:35:28;;;;;;;4.45;2.90;;;11.50;99.90;;;;;;5055196;28;20040;-59
2022/09/22 04:37:56;;;;;;;5.40;2.35;;;11.40;99.90;;;;;;5054729;28;20052;-59
2022/09/22 04:40:22;;;;;;;3.40;2.42;;;11.40;99.90;;;;;;5054900;28;20045;-59
2022/09/22 04:42:49;;;;;;;3.28;2.13;;;11.40;99.90;;;;;;5055031;28;20052;-59
2022/09/22 04:45:16;;;;;;;5.13;2.90;;;11.40;99.90;;;;;;5055112;28;20140;-59
2022/09/22 04:47:44;;;;;;;6.38;2.60;;;11.30;99.90;;;;;;5053685;28;20155;-58
2022/09/22 04:50:12;;;;;;;5.15;2.67;;;11.30;99.90;;;;;;5053429;28;20139;-58
2022/09/22 04:52:38;;;;;;;4.70;3.00;;;11.20;99.90;;;;;;5052795;28;20342;-59
2022/09/22 04:55:06;;;;;;;4.47;2.55;;;11.10;99.90;;;;;;5053496;28;20377;-59
2022/09/22 04:57:33;;;;;;;7.07;3.28;;;11.10;99.90;;;;;;5037156;28;20463;-59
2022/09/22 05:00:00;;;;;;;4.90;2.88;;;11.10;99.90;;;;;;5053252;28;20120;-59
2022/09/22 05:02:26;;;;;;;9.07;3.70;;;11.10;99.90;;;;;;5053121;28;20049;-59
2022/09/22 05:04:54;;;;;;;8.02;3.47;;;11.10;99.90;;;;;;5055154;28;20040;-59
2022/09/22 05:07:21;;;;;;;3.25;2.13;;;11.10;99.90;;;;;;5052627;28;20091;-59
2022/09/22 05:09:48;;;;;;;4.53;3.17;;;11.10;99.90;;;;;;5054564;28;20235;-61
2022/09/22 05:12:14;;;;;;;4.70;2.83;;;11.10;99.90;;;;;;5055266;28;20084;-59
2022/09/22 05:14:41;;;;;;;5.32;3.25;;;11.10;99.90;;;;;;5057874;28;20041;-60
2022/09/22 05:17:08;;;;;;;10.13;3.33;;;11.00;99.90;;;;;;5058768;28;20063;-58
2022/09/22 05:19:35;;;;;;;6.70;3.47;;;11.10;99.90;;;;;;5054789;28;20061;-58
2022/09/22 05:22:02;;;;;;;3.55;3.03;;;11.10;99.90;;;;;;5053805;28;20064;-59
2022/09/22 05:24:29;;;;;;;5.53;3.25;;;11.10;99.90;;;;;;5053222;28;20125;-59
2022/09/22 05:26:56;;;;;;;4.30;3.15;;;11.20;99.90;;;;;;5053234;28;20276;-58
2022/09/22 05:29:22;;;;;;;5.63;3.28;;;11.20;99.90;;;;;;5053953;28;20503;-59
2022/09/22 05:31:53;;;;;;;4.55;3.28;;;11.30;99.90;;;;;;5054256;28;20045;-59
2022/09/22 05:34:20;;;;;;;6.50;3.45;;;11.20;99.90;;;;;;5051900;28;20412;-59
2022/09/22 05:36:47;;;;;;;7.32;4.00;;;11.20;99.90;;;;;;5053726;28;20060;-59
2022/09/22 05:39:14;;;;;;;7.97;3.40;;;11.10;99.90;;;;;;5052714;28;20041;-59
2022/09/22 05:41:40;;;;;;;6.82;3.67;;;11.10;99.90;;;;;;5053614;28;20049;-58
2022/09/22 05:44:07;;;;;;;5.35;3.28;;;11.10;99.90;;;;;;5053132;28;20056;-58
2022/09/22 05:46:35;;;;;;;5.75;3.38;;;11.10;99.90;;;;;;5053748;28;20427;-59
2022/09/22 05:49:01;;;;;;;9.57;3.45;;;11.10;99.90;;;;;;5053517;28;20045;-60
2022/09/22 05:51:29;;;;;;;7.88;4.30;;;11.10;99.90;;;;;;5053515;28;20052;-60
2022/09/22 05:53:56;;;;;;;8.55;4.60;;;11.10;99.90;;;;;;5053480;28;20445;-59
2022/09/22 05:56:23;;;;;;;7.03;4.10;;;11.10;99.90;;;;;;5053541;28;20049;-60
2022/09/22 05:58:59;;;;;;;6.54;4.22;;;11.10;99.90;;;;;;5012387;28;10000871;-59
2022/09/22 06:01:25;;;;;;;10.00;3.53;;;11.10;99.90;;;;;;5048035;28;20267;-59
2022/09/22 06:03:52;;;;;;;5.95;3.50;;;11.20;99.90;;;;;;5051813;28;20083;-58
2022/09/22 06:06:19;;;;;;;6.97;3.95;;;11.10;99.90;;;;;;5053226;28;20107;-60
2022/09/22 06:08:46;;;;;;;6.05;3.75;;;11.10;99.90;;;;;;5053161;28;20510;-59
2022/09/22 06:11:14;;;;;;;6.63;4.07;;;11.10;99.90;;;;;;5052366;28;20492;-58
2022/09/22 06:13:43;;;;;;;8.57;3.72;;;11.10;99.90;;;;;;5052525;28;20049;-59
2022/09/22 06:16:09;;;;;;;7.18;3.67;;;11.10;99.90;;;;;;5048934;28;20049;-58
2022/09/22 06:18:36;;;;;;;7.55;3.88;;;11.10;99.90;;;;;;5050017;28;20488;-59
2022/09/22 06:21:03;;;;;;;5.40;3.33;;;11.20;99.90;;;;;;5052576;28;20041;-58
2022/09/22 06:23:30;;;;;;;6.05;4.38;;;11.20;99.90;;;;;;5052740;28;20048;-58
2022/09/22 06:25:57;;;;;;;8.65;4.10;;;11.30;99.90;;;;;;5048791;28;20086;-59
2022/09/22 06:28:24;;;;;;;6.45;3.50;;;11.30;99.90;;;;;;5049053;28;20135;-59
2022/09/22 06:30:51;;;;;;;6.57;4.13;;;11.30;99.90;;;;;;5054696;28;20128;-59
2022/09/22 06:33:18;;;;;;;6.60;3.40;;;11.30;99.90;;;;;;5056045;28;20063;-56
2022/09/22 06:35:45;;;;;;;19.00;4.00;;;11.30;99.90;;;;;;5052289;28;20059;-58
2022/09/22 06:38:13;;;;;;;7.70;4.15;;;11.30;99.90;;;;;;5053491;28;20489;-58
2022/09/22 06:40:41;;;;;;;9.50;5.35;;;11.40;99.90;;;;;;5051111;28;20044;-54
2022/09/22 06:43:14;;;;;;;6.25;3.80;;;11.40;99.90;;;;;;5038153;28;20050;-59
2022/09/22 06:45:41;;;;;;;6.47;4.00;;;11.50;99.90;;;;;;5034070;28;20104;-59
2022/09/22 06:48:11;;;;;;;6.85;4.43;;;11.50;99.90;;;;;;5051079;28;20049;-61
2022/09/22 06:50:39;;;;;;;7.20;5.15;;;11.50;99.90;;;;;;5049382;28;20135;-59
2022/09/22 06:53:07;;;;;;;6.85;3.53;;;11.50;99.90;;;;;;5051198;28;20055;-59
2022/09/22 06:55:40;;;;;;;5.28;3.92;;;11.50;99.90;;;;;;5051840;28;20049;-60
2022/09/22 06:58:07;;;;;;;9.00;4.20;;;11.60;99.90;;;;;;5051007;28;20503;-60
2022/09/22 07:00:34;;;;;;;6.20;3.83;;;11.70;99.90;;;;;;5033887;28;20063;-59
2022/09/22 07:03:07;;;;;;;6.85;3.45;;;11.70;99.90;;;;;;5049440;28;20065;-59
2022/09/22 07:05:36;;;;;;;4.75;3.60;;;11.80;99.90;;;;;;5049203;28;20044;-59
2022/09/22 07:08:07;;;;;;;4.43;3.38;;;11.90;99.90;;;;;;5050443;28;20091;-59
2022/09/22 07:10:36;;;;;;;6.80;3.22;;;12.00;99.90;;;;;;5030040;28;20056;-60
2022/09/22 07:13:09;;;;;;;6.75;3.55;;;12.10;99.90;;;;;;5046234;28;20053;-60
2022/09/22 07:15:36;;;;;;;9.57;4.10;;;12.10;99.90;;;;;;5050568;28;20131;-60
2022/09/22 07:18:03;;;;;;;5.97;3.60;;;12.20;99.90;;;;;;5050879;28;20059;-60
2022/09/22 07:20:32;;;;;;;10.40;3.53;;;12.30;99.90;;;;;;5032864;28;20080;-60
2022/09/22 07:22:59;;;;;;;7.50;3.38;;;12.40;99.90;;;;;;5050827;28;20488;-60
2022/09/22 07:25:27;;;;;;;8.52;4.20;;;12.40;99.90;;;;;;5051318;28;20045;-61
2022/09/22 07:27:56;;;;;;;10.82;3.67;;;12.50;99.90;;;;;;5049329;28;20097;-60
2022/09/22 07:30:25;;;;;;;5.57;3.33;;;12.70;99.90;;;;;;5044411;28;20045;-59
2022/09/22 07:32:52;;;;;;;4.57;3.25;;;12.70;99.90;;;;;;5050271;28;20087;-60
2022/09/22 07:35:19;;;;;;;7.93;4.03;;;12.80;99.90;;;;;;5033217;28;20299;-60
2022/09/22 07:37:46;;;;;;;14.15;3.65;;;12.90;99.90;;;;;;5059374;28;20105;-58
2022/09/22 07:40:13;;;;;;;11.05;3.40;;;13.00;99.90;;;;;;5062594;28;20076;-60
2022/09/22 07:42:40;;;;;;;7.50;2.78;;;13.10;99.90;;;;;;5061477;28;20040;-60
2022/09/22 07:45:12;;;;;;;4.85;2.78;;;13.20;99.90;;;;;;5061789;28;20041;-58
2022/09/22 07:50:24;;;;;;;4.18;2.63;;;13.40;99.90;;;;;;5060215;28;20096;-58
2022/09/22 07:52:52;;;;;;;4.80;3.00;;;13.50;99.90;;;;;;5061639;28;20030;-58
2022/09/22 07:55:21;;;;;;;3.92;2.72;;;13.60;99.90;;;;;;5066629;28;20071;-58
2022/09/22 07:57:57;;;;;;;4.93;3.20;;;13.70;99.90;;;;;;5049308;28;20048;-58
2022/09/22 08:00:25;;;;;;;5.05;2.30;;;13.80;99.90;;;;;;5075062;28;20044;-59
2022/09/22 08:02:56;;;;;;;16.50;3.10;;;13.90;99.90;;;;;;5075376;28;20072;-59
2022/09/22 08:05:24;;;;;;;9.07;3.47;;;14.00;99.90;;;;;;5073903;28;20029;-60
2022/09/22 08:07:51;;;;;;;7.70;3.75;;;14.20;99.90;;;;;;5058012;28;20092;-59
2022/09/22 08:10:18;;;;;;;5.72;3.28;;;14.30;99.90;;;;;;5058192;28;20040;-59
2022/09/22 08:12:45;;;;;;;10.85;3.20;;;14.40;99.90;;;;;;5059101;28;20096;-58
2022/09/22 08:15:12;;;;;;;11.38;3.80;;;14.40;99.90;;;;;;5075765;28;20056;-58
2022/09/22 08:17:39;;;;;;;11.73;3.10;;;14.60;99.90;;;;;;5075852;28;20055;-59
2022/09/22 08:20:07;;;;;;;5.40;3.85;;;14.70;99.90;;;;;;5075231;28;20068;-59
2022/09/22 08:22:34;;;;;;;7.97;3.55;;;14.80;99.90;;;;;;5075134;28;20041;-60
2022/09/22 08:25:01;;;;;;;6.35;3.30;;;14.90;99.90;;;;;;5075563;28;20060;-59
2022/09/22 08:27:28;;;;;;;13.50;5.05;;;15.00;99.90;;;;;;5076159;28;20036;-59
2022/09/22 08:29:55;;;;;;;5.70;3.55;;;15.10;99.90;;;;;;5075987;28;20029;-59
2022/09/22 08:32:25;;;;;;;10.85;4.97;;;15.20;99.90;;;;;;5075903;28;20060;-58
2022/09/22 08:34:56;;;;;;;8.70;3.17;;;15.30;99.90;;;;;;5075978;28;20037;-57
2022/09/22 08:37:26;;;;;;;5.30;3.20;;;15.40;99.90;;;;;;5072232;28;20053;-60
2022/09/22 08:39:53;;;;;;;6.82;3.13;;;15.50;99.90;;;;;;5058795;28;20071;-59
2022/09/22 08:42:21;;;;;;;7.10;3.03;;;15.60;99.90;;;;;;5076241;28;20120;-59
2022/09/22 08:45:06;;;;;;;8.75;3.30;;;15.70;99.90;;;;;;5076058;28;20028;-59
2022/09/22 08:53:34;;;;;;;4.50;2.50;;;16.10;99.90;;;;;;5075381;28;20044;-59
2022/09/22 08:56:29;;;;;;;8.20;3.22;;;16.20;99.90;;;;;;5075384;28;20025;-60
2022/09/22 08:59:25;;;;;;;8.18;3.13;;;16.30;99.90;;;;;;5075604;28;20037;-59
2022/09/22 09:02:14;;;;;;;6.95;3.22;;;16.40;99.90;;;;;;5075337;28;20061;-60
2022/09/22 09:05:03;;;;;;;7.93;2.63;;;16.50;99.90;;;;;;5074956;28;20068;-59
2022/09/22 09:07:42;;;;;;;8.13;2.72;;;16.70;99.90;;;;;;5073618;28;20025;-60
2022/09/22 09:10:28;;;;;;;10.00;3.38;;;16.80;99.90;;;;;;5075904;28;20100;-59
2022/09/22 09:13:07;;;;;;;6.70;2.70;;;17.00;99.90;;;;;;5075611;28;20063;-59
2022/09/22 09:15:43;;;;;;;5.68;2.92;;;17.20;99.90;;;;;;5078456;28;20059;-60
2022/09/22 09:18:14;;;;;;;7.35;2.80;;;17.40;99.90;;;;;;5076750;28;20029;-60
2022/09/22 09:20:47;;;;;;;9.02;2.90;;;17.70;99.90;;;;;;5079134;28;20087;-60
2022/09/22 09:23:16;;;;;;;11.05;2.58;;;17.90;99.90;;;;;;5076136;28;20037;-59
2022/09/22 09:25:46;;;;;;;7.25;2.30;;;18.00;99.90;;;;;;5078680;28;20093;-59
2022/09/22 09:28:19;;;;;;;6.80;2.00;;;18.20;99.90;;;;;;5077406;28;20101;-59
2022/09/22 09:30:55;;;;;;;7.78;2.65;;;18.10;99.90;;;;;;5078486;28;20037;-59
2022/09/22 09:33:32;;;;;;;9.38;2.53;;;18.10;99.90;;;;;;5044218;28;20092;-60
2022/09/22 09:36:00;;;;;;;8.00;2.33;;;18.00;99.90;;;;;;5078376;28;20059;-58
2022/09/22 09:38:34;;;;;;;4.57;1.75;;;17.90;99.90;;;;;;5061650;28;20036;-59
2022/09/22 09:41:13;;;;;;;5.13;1.90;;;17.80;99.90;;;;;;5062292;28;20064;-59
2022/09/22 09:43:41;;;;;;;8.45;2.38;;;17.80;99.90;;;;;;5078878;28;20064;-59
2022/09/22 09:46:31;;;;;;;9.65;2.00;;;17.80;99.90;;;;;;5078884;28;20037;-59
2022/09/22 09:49:15;;;;;;;6.97;3.05;;;17.80;99.90;;;;;;5064054;28;20041;-58
2022/09/22 09:51:47;;;;;;;8.20;2.40;;;17.80;99.90;;;;;;5046581;28;20056;-58
2022/09/22 09:54:15;;;;;;;8.63;2.55;;;17.80;99.90;;;;;;5078539;28;20035;-59
2022/09/22 09:57:14;;;;;;;6.22;1.95;;;17.90;99.90;;;;;;5078795;28;20233;-59
2022/09/22 10:02:36;;;;;;;4.05;1.75;;;17.90;99.90;;;;;;5078094;28;20049;-60
2022/09/22 10:05:15;;;;;;;8.65;1.65;;;18.00;99.90;;;;;;5035233;28;20077;-60
2022/09/22 10:07:46;;;;;;;4.03;2.08;;;18.00;99.90;;;;;;5078097;28;20051;-59
2022/09/22 10:10:30;;;;;;;6.07;1.50;;;18.10;99.90;;;;;;5067040;28;20032;-59
2022/09/22 10:13:28;;;;;;;7.35;1.58;;;18.10;99.90;;;;;;5077654;28;20060;-60
2022/09/22 10:16:25;;;;;;;6.57;2.17;;;18.20;99.90;;;;;;5059190;28;20088;-60
2022/09/22 10:18:58;;;;;;;5.28;2.28;;;18.10;99.90;;;;;;5075554;28;20096;-61
2022/09/22 10:21:26;;;;;;;3.95;1.35;;;18.20;99.90;;;;;;5078347;28;20029;-59
2022/09/22 10:23:58;;;;;;;9.68;1.95;;;18.20;99.90;;;;;;5077798;28;20049;-59
2022/09/22 10:26:25;;;;;;;8.38;1.65;;;18.30;99.90;;;;;;5061014;28;20037;-58
2022/09/22 10:29:11;;;;;;;7.43;1.52;;;18.40;99.90;;;;;;5077118;28;20022;-58
2022/09/22 10:31:41;;;;;;;4.25;1.67;;;18.40;99.90;;;;;;5077858;28;20048;-59
2022/09/22 10:34:38;;;;;;;7.28;1.80;;;18.40;99.90;;;;;;5076921;28;20045;-59
2022/09/22 10:37:10;;;;;;;8.13;1.60;;;18.60;99.90;;;;;;5060507;28;20048;-59
2022/09/22 10:39:40;;;;;;;4.13;1.55;;;18.70;99.90;;;;;;5040809;28;20032;-60
2022/09/22 10:42:14;;;;;;;11.32;1.38;;;18.70;99.90;;;;;;5073829;28;20065;-59
2022/09/22 10:44:41;;;;;;;6.65;1.85;;;18.70;99.90;;;;;;5060683;28;20033;-61
2022/09/22 10:47:40;;;;;;;5.88;1.50;;;18.60;99.90;;;;;;5076949;28;20044;-59
2022/09/22 10:50:16;;;;;;;7.38;2.08;;;18.70;99.90;;;;;;5077339;28;20060;-59
2022/09/22 10:53:03;;;;;;;2.95;1.55;;;18.80;99.90;;;;;;5077186;28;20146;-59
2022/09/22 10:55:53;;;;;;;10.82;2.42;;;18.90;99.90;;;;;;5077142;28;20047;-58
2022/09/22 10:58:49;;;;;;;11.75;2.35;;;19.00;99.90;;;;;;5059320;28;20054;-59
2022/09/22 11:01:47;;;;;;;7.18;1.70;;;18.90;99.90;;;;;;5076707;28;20032;-60
2022/09/22 11:04:40;;;;;;;14.65;1.75;;;18.90;99.90;;;;;;5076734;28;20033;-59
2022/09/22 11:13:13;;;;;;;4.38;1.63;;;19.00;99.90;;;;;;5076308;28;20100;-58
2022/09/22 11:15:53;;;;;;;4.22;1.55;;;19.00;99.90;;;;;;5076287;28;20068;-59
2022/09/22 11:18:30;;;;;;;8.23;2.25;;;18.90;99.90;;;;;;5075885;28;20639;-58
2022/09/22 11:21:08;;;;;;;5.90;2.15;;;19.00;99.90;;;;;;5060669;28;20029;-59
2022/09/22 11:24:04;;;;;;;4.53;1.45;;;19.20;99.90;;;;;;5076432;28;20052;-58
2022/09/22 11:26:50;;;;;;;7.00;1.70;;;19.40;99.90;;;;;;5075854;28;20032;-60
2022/09/22 11:29:44;;;;;;;7.93;2.53;;;19.50;99.90;;;;;;5055960;28;20098;-58
2022/09/22 11:32:21;;;;;;;5.50;1.65;;;19.50;99.90;;;;;;5074614;28;20037;-60
2022/09/22 11:34:54;;;;;;;6.13;1.65;;;19.30;99.90;;;;;;5075179;28;20076;-59
2022/09/22 11:37:27;;;;;;;4.53;1.30;;;19.30;99.90;;;;;;5074832;28;20033;-58
2022/09/22 11:40:25;;;;;;;7.72;1.40;;;19.50;99.90;;;;;;5075611;28;20073;-59
2022/09/22 11:43:14;;;;;;;6.78;2.28;;;19.60;99.90;;;;;;5051488;28;20321;-58
2022/09/22 11:45:53;;;;;;;5.50;1.70;;;19.60;99.90;;;;;;5066509;28;20048;-59
2022/09/22 11:48:49;;;;;;;7.65;1.83;;;19.60;99.90;;;;;;5065069;28;20311;-59
2022/09/22 11:51:31;;;;;;;6.63;1.88;;;19.40;99.90;;;;;;5068796;28;20108;-60
2022/09/22 11:54:06;;;;;;;7.15;2.67;;;19.40;99.90;;;;;;5066149;28;20029;-59
2022/09/22 11:56:39;;;;;;;6.95;2.15;;;19.50;99.90;;;;;;5063048;28;20067;-60
2022/09/22 11:59:27;;;;;;;4.30;1.88;;;19.40;99.90;;;;;;5058451;28;20033;-59
2022/09/22 12:01:55;;;;;;;13.55;2.28;;;19.50;99.90;;;;;;5072607;28;20156;-59
2022/09/22 12:04:32;;;;;;;4.68;1.63;;;19.60;99.90;;;;;;5061002;28;20064;-59
2022/09/22 12:06:59;;;;;;;7.38;1.70;;;19.70;99.90;;;;;;5062355;28;20071;-59
2022/09/22 12:09:53;;;;;;;5.68;1.52;;;19.70;99.90;;;;;;5059027;28;20072;-59
2022/09/22 12:12:20;;;;;;;;;;;19.70;99.90;;;;;;5073721;28;20101;-60
2022/09/22 12:14:58;;;;;;;3.70;1.42;;;19.70;99.90;;;;;;5072713;28;19940;-59
2022/09/22 12:17:57;;;;;;;2.25;1.42;;;19.80;99.90;;;;;;5074404;28;20040;-60
2022/09/22 12:20:39;;;;;;;9.73;1.90;;;19.80;99.90;;;;;;5073579;28;20056;-58
2022/09/22 12:23:18;;;;;;;4.47;1.63;;;19.80;99.90;;;;;;5056933;28;20052;-59
2022/09/22 12:25:47;;;;;;;6.95;1.58;;;19.80;99.90;;;;;;5057427;28;20064;-60
2022/09/22 12:28:24;;;;;;;3.40;1.98;;;19.90;99.90;;;;;;5072749;28;20304;-60
2022/09/22 12:30:52;;;;;;;6.43;1.77;;;19.90;99.90;;;;;;4706564;28;10000430;-59
2022/09/22 12:33:19;;;;;;;6.18;1.65;;;20.00;99.90;;;;;;5071743;28;20112;-59
2022/09/22 12:35:53;;;;;;;8.25;1.45;;;20.00;99.90;;;;;;5055881;28;20052;-59
2022/09/22 12:38:20;;;;;;;5.47;1.33;;;20.10;99.90;;;;;;5071924;28;20029;-59
2022/09/22 12:40:47;;;;;;;5.25;2.15;;;20.10;99.90;;;;;;5073330;28;20033;-57
2022/09/22 12:43:19;;;;;;;3.83;1.50;;;20.10;99.90;;;;;;5055712;28;20045;-58
2022/09/22 12:45:46;;;;;;;8.73;1.98;;;20.10;99.90;;;;;;5072236;28;20045;-59
2022/09/22 12:48:37;;;;;;;4.88;2.38;;;20.00;99.90;;;;;;5072358;28;20084;-58
2022/09/22 12:51:23;;;;;;;8.65;2.30;;;20.10;99.90;;;;;;5076615;28;20033;-59
2022/09/22 12:53:50;;;;;;;3.45;1.33;;;20.10;99.90;;;;;;5076574;28;20048;-59
2022/09/22 12:56:39;;;;;;;11.73;3.22;;;20.10;99.90;;;;;;5076370;28;20028;-58
2022/09/22 12:59:34;;;;;;;7.05;2.72;;;20.20;99.90;;;;;;5076711;28;20048;-60
2022/09/22 13:02:10;;;;;;;5.47;1.65;;;20.10;99.90;;;;;;5076917;28;20290;-60
2022/09/22 13:04:37;;;;;;;5.22;2.22;;;20.10;99.90;;;;;;5076795;28;20045;-59
2022/09/22 13:07:09;;;;;;;2.70;1.20;;;20.10;99.90;;;;;;5076051;28;20032;-60
2022/09/22 13:09:36;;;;;;;6.60;1.70;;;20.00;99.90;;;;;;5058385;28;20084;-60
2022/09/22 13:12:12;;;;;;;3.35;1.70;;;20.00;99.90;;;;;;5066413;28;20092;-59
2022/09/22 13:15:00;;;;;;;10.68;1.98;;;20.10;99.90;;;;;;5072169;28;20063;-60
2022/09/22 13:17:46;;;;;;;10.65;2.40;;;20.10;99.90;;;;;;5069539;28;20029;-59
2022/09/22 13:20:28;;;;;;;5.82;1.63;;;20.10;99.90;;;;;;5072769;28;20086;-59
2022/09/22 13:23:13;;;;;;;5.82;1.30;;;20.20;99.90;;;;;;5063771;28;20089;-60
2022/09/22 13:25:43;;;;;;;4.25;1.60;;;20.30;99.90;;;;;;5075339;28;20056;-60
2022/09/22 13:28:15;;;;;;;9.00;1.83;;;20.40;99.90;;;;;;5075739;28;20040;-61
2022/09/22 13:30:43;;;;;;;8.85;2.53;;;20.40;99.90;;;;;;5075928;28;20060;-58